Time;durP1;ratioP1;P1;durP2;ratioP2;P2;SDS_P1;SDS_P2;PMS_P1;PMS_P2;Temp;Humidity;BMP_temperature;BMP_pressure;BME280_temperature;BME280_humidity;BME280_pressure;Samples;Min_cycle;Max_cycle;Signal;HPM_P1;HPM_P2
2022/06/29 00:01:30;;;;;;;5.50;2.30;;;;;;;23.31;44.02;100491.51;116927;1189;23477;-48
2022/06/29 00:03:58;;;;;;;5.80;2.20;;;;;;;23.38;43.76;100487.89;117015;1188;24242;-59
2022/06/29 00:06:25;;;;;;;4.90;2.40;;;;;;;23.43;43.44;100483.95;117108;1188;24177;-48
2022/06/29 00:08:52;;;;;;;4.90;2.40;;;;;;;23.41;43.47;100483.34;117070;1188;24158;-59
2022/06/29 00:11:19;;;;;;;5.30;2.30;;;;;;;23.40;43.37;100483.60;116931;1189;23938;-48
2022/06/29 00:13:46;;;;;;;3.70;2.20;;;;;;;23.38;43.35;100481.92;117082;1189;23679;-59
2022/06/29 00:16:13;;;;;;;5.50;2.00;;;;;;;23.37;43.37;100479.48;117072;1187;24220;-59
2022/06/29 00:18:40;;;;;;;4.80;2.50;;;;;;;23.39;43.29;100480.27;117082;1189;23548;-48
2022/06/29 00:21:07;;;;;;;6.10;2.00;;;;;;;23.40;43.40;100477.51;116995;1189;24149;-48
2022/06/29 00:23:35;;;;;;;4.10;2.10;;;;;;;23.44;43.40;100479.06;117100;1188;24193;-47
2022/06/29 00:26:02;;;;;;;6.50;2.10;;;;;;;23.50;43.19;100484.94;117054;1188;23579;-48
2022/06/29 00:28:29;;;;;;;4.70;2.40;;;;;;;23.55;43.10;100481.90;117094;1188;24193;-59
2022/06/29 00:30:56;;;;;;;5.60;2.00;;;;;;;23.60;43.16;100487.11;117090;1189;24164;-47
2022/06/29 00:33:23;;;;;;;8.50;1.90;;;;;;;23.67;43.04;100487.61;117062;1191;23471;-48
2022/06/29 00:35:51;;;;;;;5.60;2.30;;;;;;;23.66;43.07;100487.31;117020;1189;23451;-59
2022/06/29 00:38:18;;;;;;;5.10;2.00;;;;;;;23.68;43.02;100491.64;117003;1189;24695;-59
2022/06/29 00:40:45;;;;;;;5.70;2.20;;;;;;;23.70;43.12;100494.02;117042;1188;23691;-49
2022/06/29 00:43:12;;;;;;;5.00;1.90;;;;;;;23.82;42.98;100484.82;117035;1188;23478;-53
2022/06/29 00:45:39;;;;;;;4.10;2.00;;;;;;;23.87;43.06;100481.48;117068;1188;24238;-50
2022/06/29 00:48:07;;;;;;;4.50;2.20;;;;;;;23.86;42.93;100482.93;117067;1188;21881;-59
2022/06/29 00:50:34;;;;;;;4.40;1.80;;;;;;;23.84;42.94;100484.35;117034;1188;23615;-51
2022/06/29 00:53:04;;;;;;;4.40;2.20;;;;;;;23.83;42.78;100485.81;116872;1191;23455;-60
2022/06/29 00:55:32;;;;;;;5.10;1.80;;;;;;;23.81;42.96;100486.33;117029;1189;24244;-60
2022/06/29 00:58:03;;;;;;;8.20;2.00;;;;;;;23.83;42.90;100485.11;117081;1188;23541;-59
2022/06/29 01:00:32;;;;;;;3.70;2.00;;;;;;;23.83;42.94;100483.14;116971;1189;24310;-48
2022/06/29 01:03:02;;;;;;;4.20;1.90;;;;;;;23.82;42.91;100476.59;117136;1189;23448;-60
2022/06/29 01:05:30;;;;;;;6.90;2.00;;;;;;;23.81;42.91;100473.95;116988;1187;24241;-48
2022/06/29 01:07:57;;;;;;;3.40;1.90;;;;;;;23.82;42.98;100471.04;117066;1189;24221;-49
2022/06/29 01:10:26;;;;;;;3.40;2.00;;;;;;;23.82;43.01;100469.08;117028;1188;23574;-59
2022/06/29 01:12:53;;;;;;;5.00;2.10;;;;;;;23.81;43.08;100467.89;117101;1188;23566;-49
2022/06/29 01:15:21;;;;;;;3.40;1.80;;;;;;;23.82;43.11;100469.09;117056;1188;23452;-59
2022/06/29 01:17:48;;;;;;;4.70;2.10;;;;;;;23.82;43.18;100474.45;116955;1189;22583;-48
2022/06/29 01:20:15;;;;;;;6.70;2.20;;;;;;;23.80;43.38;100475.98;116987;1188;23551;-49
2022/06/29 01:22:42;;;;;;;3.90;2.40;;;;;;;23.73;43.43;100478.95;117044;1189;24174;-59
2022/06/29 01:25:09;;;;;;;4.50;2.10;;;;;;;23.73;43.57;100482.39;117042;1188;23555;-60
2022/06/29 01:27:36;;;;;;;4.00;2.40;;;;;;;23.67;43.59;100482.22;117065;1188;23451;-48
2022/06/29 01:30:07;;;;;;;4.50;2.40;;;;;;;23.61;43.78;100482.05;117102;1190;24242;-60
2022/06/29 01:32:38;;;;;;;;;;;;;;;23.61;43.93;100486.36;116964;1189;21894;-58
2022/06/29 01:35:12;;;;;;;4.50;2.30;;;;;;;23.60;44.18;100485.55;116920;1188;23451;-49
2022/06/29 01:37:39;;;;;;;3.80;2.30;;;;;;;23.60;44.09;100483.71;116956;1189;24249;-48
2022/06/29 01:40:07;;;;;;;7.70;2.60;;;;;;;23.61;44.40;100481.70;117081;1189;23599;-48
2022/06/29 01:42:35;;;;;;;7.30;2.60;;;;;;;23.61;44.45;100479.39;117063;1189;22621;-48
2022/06/29 01:45:02;;;;;;;6.90;3.10;;;;;;;23.60;44.40;100480.31;117022;1189;23469;-48
2022/06/29 01:47:30;;;;;;;3.90;2.20;;;;;;;23.58;44.52;100475.27;117080;1188;22333;-48
2022/06/29 01:49:57;;;;;;;7.20;2.90;;;;;;;23.57;44.70;100471.21;117038;1188;23261;-48
2022/06/29 01:52:23;;;;;;;5.60;2.80;;;;;;;23.58;44.92;100479.44;117150;1189;23557;-48
2022/06/29 01:54:50;;;;;;;10.80;4.30;;;;;;;23.58;45.07;100477.08;117070;1189;23573;-48
2022/06/29 01:57:17;;;;;;;7.00;3.00;;;;;;;23.59;45.24;100475.02;117080;1189;23554;-60
2022/06/29 01:59:45;;;;;;;6.00;2.90;;;;;;;23.61;45.23;100474.94;117075;1188;23557;-59
2022/06/29 02:02:12;;;;;;;3.60;2.70;;;;;;;23.62;45.35;100475.94;117046;1188;23857;-58
2022/06/29 02:04:39;;;;;;;5.80;2.60;;;;;;;23.63;45.76;100475.89;118206;1188;23579;-59
2022/06/29 02:07:10;;;;;;;4.30;3.10;;;;;;;23.62;45.58;100478.42;117066;1189;24242;-59
2022/06/29 02:09:40;;;;;;;5.70;3.20;;;;;;;23.65;45.65;100476.63;116990;1189;23599;-59
2022/06/29 02:12:13;;;;;;;4.40;3.20;;;;;;;23.67;45.61;100476.83;117065;1189;24162;-58
2022/06/29 02:14:40;;;;;;;5.90;3.80;;;;;;;23.78;45.61;100471.84;117096;1189;22500;-49
2022/06/29 02:17:07;;;;;;;5.00;3.90;;;;;;;23.74;45.88;100474.02;117075;1189;23478;-59
2022/06/29 02:19:34;;;;;;;4.80;3.50;;;;;;;23.75;45.91;100474.32;117088;1188;23555;-58
2022/06/29 02:22:02;;;;;;;8.50;3.90;;;;;;;23.78;46.28;100475.05;117040;1191;21865;-48
2022/06/29 02:24:29;;;;;;;5.00;3.50;;;;;;;23.81;46.24;100481.85;117051;1189;21854;-59
2022/06/29 02:26:56;;;;;;;4.50;3.80;;;;;;;23.83;46.47;100483.33;117032;1189;24226;-59
2022/06/29 02:29:23;;;;;;;6.80;4.00;;;;;;;23.87;46.49;100481.26;117045;1189;23825;-48
2022/06/29 07:59:36;;;;;;;7.70;4.60;;;;;;;39.85;32.16;100428.90;116677;1192;22214;-50
2022/06/29 08:02:03;;;;;;;5.30;4.20;;;;;;;40.05;32.14;100430.04;116670;1191;21863;-61
2022/06/29 08:04:31;;;;;;;4.60;4.20;;;;;;;40.20;32.06;100427.41;118047;1187;23576;-59
2022/06/29 08:07:18;;;;;;;8.00;4.60;;;;;;;40.41;31.59;100426.50;117906;1188;23488;-49
2022/06/29 08:09:45;;;;;;;4.60;4.20;;;;;;;40.61;30.94;100431.58;116950;1187;23555;-49
2022/06/29 08:12:13;;;;;;;9.20;4.20;;;;;;;40.56;30.75;100427.06;117096;1188;23580;-50
2022/06/29 08:14:40;;;;;;;4.90;4.30;;;;;;;40.74;30.71;100428.38;117011;1188;23577;-60
2022/06/29 08:17:07;;;;;;;4.80;4.40;;;;;;;40.79;30.79;100428.27;117021;1188;24575;-60
2022/06/29 08:19:34;;;;;;;6.10;4.20;;;;;;;40.96;30.76;100428.41;117040;1187;23555;-51
2022/06/29 08:22:01;;;;;;;6.40;5.00;;;;;;;41.23;30.33;100430.29;116969;1189;22619;-60
2022/06/29 08:24:28;;;;;;;6.20;4.70;;;;;;;41.44;30.16;100431.52;117085;1187;22627;-60
2022/06/29 08:26:57;;;;;;;5.40;4.30;;;;;;;41.58;30.19;100430.31;117091;1188;23595;-61
2022/06/29 08:29:46;;;;;;;6.10;4.40;;;;;;;41.76;29.81;100424.39;117070;1188;23487;-52
2022/06/29 08:32:13;;;;;;;5.50;4.70;;;;;;;41.89;29.34;100421.02;116961;1188;23595;-60
2022/06/29 08:34:40;;;;;;;5.90;4.10;;;;;;;41.97;29.28;100416.14;116962;1191;23557;-62
2022/06/29 08:37:07;;;;;;;7.20;5.20;;;;;;;42.23;28.95;100415.85;117103;1189;22637;-61
2022/06/29 08:39:34;;;;;;;5.20;4.20;;;;;;;42.44;28.73;100416.75;116862;1186;23305;-61
2022/06/29 08:42:04;;;;;;;4.50;4.00;;;;;;;42.62;28.47;100419.54;116908;1188;23686;-58
2022/06/29 08:44:32;;;;;;;7.30;4.30;;;;;;;42.74;28.14;100419.56;117001;1189;23605;-50
2022/06/29 08:47:07;;;;;;;5.20;3.90;;;;;;;42.85;28.03;100422.38;117005;1188;23624;-51
2022/06/29 08:49:36;;;;;;;7.10;4.40;;;;;;;42.94;27.65;100425.30;116916;1186;24344;-61
2022/06/29 08:52:04;;;;;;;5.80;4.80;;;;;;;42.80;27.51;100424.18;116956;1189;21965;-52
2022/06/29 08:54:31;;;;;;;5.70;4.10;;;;;;;42.69;27.75;100417.80;117518;1189;22918;-55
2022/06/29 08:56:58;;;;;;;4.50;4.00;;;;;;;42.82;27.67;100423.41;117077;1188;23561;-61
2022/06/29 08:59:26;;;;;;;7.00;3.90;;;;;;;42.96;27.42;100419.89;117217;1186;23623;-51
2022/06/29 09:02:13;;;;;;;5.80;4.10;;;;;;;43.12;27.01;100419.40;117121;1188;23557;-61
2022/06/29 09:04:40;;;;;;;5.40;4.30;;;;;;;43.02;26.66;100421.15;117036;1188;23570;-51
2022/06/29 09:07:07;;;;;;;6.40;4.60;;;;;;;42.86;26.69;100419.66;117074;1187;23640;-52
2022/06/29 09:10:11;;;;;;;7.20;4.50;;;;;;;42.72;26.45;100420.61;116968;1188;23555;-51
2022/06/29 09:12:40;;;;;;;7.80;5.40;;;;;;;42.58;26.63;100418.74;116690;1192;23567;-60
2022/06/29 09:15:08;;;;;;;10.50;4.80;;;;;;;42.64;26.38;100418.61;116807;1188;23584;-57
2022/06/29 09:17:36;;;;;;;8.50;4.10;;;;;;;42.66;26.37;100416.73;117011;1188;23469;-63
2022/06/29 09:20:04;;;;;;;8.00;4.60;;;;;;;42.76;26.31;100409.24;117103;1189;23641;-51
2022/06/29 09:22:54;;;;;;;6.20;4.00;;;;;;;43.04;26.29;100412.13;116932;1189;23556;-51
2022/06/29 09:25:25;;;;;;;5.60;4.20;;;;;;;43.17;25.94;100410.38;116954;1186;23580;-50
2022/06/29 09:27:57;;;;;;;7.60;4.10;;;;;;;43.13;25.70;100409.45;116851;1188;21845;-61
2022/06/29 09:30:29;;;;;;;6.60;4.20;;;;;;;43.23;25.77;100402.52;117172;1189;23460;-51
2022/06/29 09:33:06;;;;;;;6.00;4.30;;;;;;;43.45;25.81;100398.23;117034;1189;21876;-51
2022/06/29 09:35:34;;;;;;;10.60;4.40;;;;;;;43.78;25.53;100392.09;117074;1188;22908;-51
2022/06/29 09:38:23;;;;;;;9.30;5.10;;;;;;;44.09;25.29;100390.96;117097;1188;23487;-60
2022/06/29 09:41:10;;;;;;;4.70;3.90;;;;;;;44.40;25.41;100388.77;117013;1189;23565;-51
2022/06/29 09:43:39;;;;;;;5.30;4.70;;;;;;;44.80;24.92;100385.51;117028;1190;23557;-61
2022/06/29 09:46:06;;;;;;;6.60;4.40;;;;;;;45.07;24.54;100385.54;117088;1188;21879;-50
2022/06/29 09:48:35;;;;;;;6.70;4.20;;;;;;;45.25;24.27;100378.10;117588;1187;21858;-50
2022/06/29 09:51:30;;;;;;;4.90;4.10;;;;;;;45.39;24.37;100380.48;116936;1188;21857;-52
2022/06/29 09:53:58;;;;;;;5.10;3.90;;;;;;;45.46;24.15;100374.58;116925;1188;22922;-61
2022/06/29 09:56:25;;;;;;;5.30;4.00;;;;;;;45.40;23.58;100364.42;117038;1186;22240;-62
2022/06/29 09:58:53;;;;;;;5.40;3.70;;;;;;;45.35;23.64;100377.23;116775;1188;22803;-61
2022/06/29 10:04:12;;;;;;;4.90;3.50;;;;;;;45.75;23.35;100383.62;116846;1192;23544;-61
2022/06/29 10:06:39;;;;;;;4.50;3.90;;;;;;;45.93;23.06;100380.89;116954;1189;21859;-61
2022/06/29 10:09:06;;;;;;;6.10;3.20;;;;;;;46.11;22.90;100379.00;116973;1189;22798;-52
2022/06/29 10:14:43;;;;;;;3.50;3.20;;;;;;;46.38;22.48;100378.59;117001;1188;23554;-52
2022/06/29 10:17:28;;;;;;;4.50;3.20;;;;;;;46.41;22.33;100379.70;116971;1188;21861;-60
2022/06/29 10:20:24;;;;;;;6.00;3.40;;;;;;;46.56;22.23;100381.73;116856;1189;22716;-51
2022/06/29 10:22:51;;;;;;;4.90;3.60;;;;;;;46.65;22.05;100383.01;116952;1188;23564;-51
2022/06/29 10:25:23;;;;;;;7.30;3.40;;;;;;;46.75;21.86;100382.78;117046;1189;23576;-61
2022/06/29 10:28:16;;;;;;;3.60;3.30;;;;;;;46.78;21.20;100382.70;116786;1187;21897;-50
2022/06/29 10:30:44;;;;;;;5.30;3.40;;;;;;;46.56;21.48;100380.56;116966;1188;22945;-50
2022/06/29 10:33:29;;;;;;;4.30;3.70;;;;;;;46.44;21.53;100380.73;117030;1188;21842;-50
2022/06/29 10:36:04;;;;;;;5.90;3.50;;;;;;;46.51;21.40;100375.66;117210;1188;23576;-60
2022/06/29 10:38:55;;;;;;;4.50;3.40;;;;;;;46.63;21.35;100374.67;117244;1187;22925;-60
2022/06/29 10:44:09;;;;;;;4.00;3.40;;;;;;;46.86;20.85;100378.24;116988;1188;24128;-50
2022/06/29 10:46:56;;;;;;;4.20;3.70;;;;;;;47.00;20.99;100376.06;116875;1189;23570;-50
2022/06/29 10:49:23;;;;;;;4.30;3.40;;;;;;;47.16;20.74;100375.72;116915;1189;21856;-61
2022/06/29 10:51:51;;;;;;;3.90;3.30;;;;;;;47.29;19.88;100371.29;117001;1188;22982;-62
2022/06/29 10:54:29;;;;;;;5.70;3.70;;;;;;;47.24;19.77;100372.68;117190;1188;23554;-52
2022/06/29 10:56:57;;;;;;;4.20;3.40;;;;;;;47.23;19.82;100368.43;117056;1186;23698;-61
2022/06/29 10:59:37;;;;;;;3.90;3.40;;;;;;;47.36;19.27;100369.79;116932;1187;23579;-61
2022/06/29 11:02:08;;;;;;;4.90;3.40;;;;;;;47.34;19.48;100369.60;116997;1191;21845;-51
2022/06/29 11:04:35;;;;;;;6.30;3.40;;;;;;;47.38;19.81;100368.81;117036;1189;21883;-61
2022/06/29 11:12:49;;;;;;;4.10;3.20;;;;;;;47.40;19.67;100357.60;117104;1189;23632;-50
2022/06/29 11:15:42;;;;;;;6.10;3.80;;;;;;;47.41;17.48;100353.49;117055;1188;23576;-61
2022/06/29 11:18:20;;;;;;;3.90;3.20;;;;;;;46.84;17.58;100357.23;117076;1187;21851;-61
2022/06/29 11:20:49;;;;;;;3.30;3.00;;;;;;;46.44;19.02;100354.19;117140;1188;22675;-49
2022/06/29 11:23:20;;;;;;;4.70;3.90;;;;;;;46.39;18.41;100352.29;117058;1188;23654;-51
2022/06/29 11:25:49;;;;;;;7.00;3.40;;;;;;;46.17;19.00;100346.94;117145;1187;22806;-53
2022/06/29 11:28:17;;;;;;;4.90;3.30;;;;;;;46.29;19.25;100347.44;117122;1187;23499;-51
2022/06/29 11:31:01;;;;;;;4.60;3.30;;;;;;;46.71;19.20;100346.27;117153;1188;23571;-62
2022/06/29 11:33:29;;;;;;;5.00;4.10;;;;;;;47.27;18.49;100346.19;117187;1188;22901;-50
2022/06/29 11:35:56;;;;;;;4.60;3.60;;;;;;;47.36;17.92;100343.88;117164;1186;21904;-62
2022/06/29 11:38:29;;;;;;;5.10;3.80;;;;;;;47.15;18.08;100341.61;117229;1188;23574;-58
2022/06/29 11:40:56;;;;;;;5.80;3.90;;;;;;;47.01;18.05;100336.92;117192;1187;23554;-50
2022/06/29 11:43:43;;;;;;;5.20;4.10;;;;;;;46.67;17.68;100335.33;117089;1189;23598;-62
2022/06/29 11:46:19;;;;;;;8.40;4.00;;;;;;;46.28;18.09;100333.67;116968;1187;22711;-61
2022/06/29 11:51:52;;;;;;;4.30;3.40;;;;;;;46.75;18.03;100326.61;117201;1184;22325;-61
2022/06/29 11:54:40;;;;;;;3.90;3.40;;;;;;;46.77;18.01;100326.13;117075;1188;23614;-51
2022/06/29 11:57:09;;;;;;;4.40;3.90;;;;;;;46.95;18.12;100320.20;117145;1187;21848;-51
2022/06/29 11:59:36;;;;;;;6.00;4.10;;;;;;;47.05;17.65;100323.70;117195;1188;21864;-51
2022/06/29 12:02:04;;;;;;;5.00;4.50;;;;;;;46.89;17.35;100318.08;117150;1187;23552;-61
2022/06/29 12:04:33;;;;;;;4.50;3.80;;;;;;;46.57;17.93;100317.73;117132;1189;21865;-51
2022/06/29 12:07:09;;;;;;;6.90;4.60;;;;;;;46.70;18.40;100311.30;117060;1187;22927;-51
2022/06/29 12:09:37;;;;;;;6.00;4.00;;;;;;;46.99;17.83;100315.29;117168;1188;21880;-61
2022/06/29 12:12:09;;;;;;;4.00;3.40;;;;;;;47.34;18.32;100314.42;117195;1186;23617;-50
2022/06/29 12:14:37;;;;;;;10.60;4.40;;;;;;;47.60;18.41;100312.47;117130;1188;22918;-61
2022/06/29 12:17:05;;;;;;;5.10;4.20;;;;;;;47.74;18.42;100301.34;117100;1188;23554;-61
2022/06/29 12:19:32;;;;;;;5.00;4.50;;;;;;;47.98;18.32;100301.60;117068;1187;21897;-51
2022/06/29 12:21:59;;;;;;;6.00;4.30;;;;;;;48.33;18.10;100302.71;117113;1188;23554;-51
2022/06/29 12:24:27;;;;;;;6.40;4.90;;;;;;;48.40;18.03;100301.40;117042;1189;23569;-51
2022/06/29 12:26:54;;;;;;;5.20;4.50;;;;;;;48.37;18.08;100299.23;117087;1188;22830;-51
2022/06/29 12:29:21;;;;;;;6.60;5.00;;;;;;;48.52;18.10;100297.36;117177;1188;23553;-51
2022/06/29 12:31:51;;;;;;;6.10;4.30;;;;;;;48.79;18.14;100297.65;117087;1188;21880;-52
2022/06/29 12:34:18;;;;;;;8.30;4.90;;;;;;;48.88;18.01;100295.49;117101;1187;23554;-52
2022/06/29 12:36:56;;;;;;;5.20;4.50;;;;;;;48.97;18.07;100290.14;117131;1188;23572;-51
2022/06/29 12:39:23;;;;;;;6.20;4.60;;;;;;;49.03;17.92;100287.28;117195;1188;23622;-52
2022/06/29 12:41:50;;;;;;;6.50;5.00;;;;;;;49.05;18.04;100292.88;117025;1188;23554;-61
2022/06/29 12:44:18;;;;;;;5.60;4.60;;;;;;;49.11;17.87;100288.42;117115;1188;24171;-61
2022/06/29 12:46:46;;;;;;;8.80;4.80;;;;;;;49.19;17.89;100282.95;117210;1187;24159;-61
2022/06/29 12:49:14;;;;;;;8.50;4.50;;;;;;;49.25;17.80;100281.20;116891;1187;22635;-60
2022/06/29 12:51:41;;;;;;;5.80;4.40;;;;;;;49.25;17.66;100281.92;117411;1187;22036;-62
2022/06/29 12:54:11;;;;;;;5.30;4.80;;;;;;;49.11;17.41;100277.02;116957;1188;21869;-61
2022/06/29 12:56:38;;;;;;;4.80;4.30;;;;;;;48.84;17.56;100274.89;117163;1189;23895;-52
2022/06/29 12:59:05;;;;;;;5.30;4.10;;;;;;;48.58;17.41;100269.19;117122;1188;23619;-52
2022/06/29 13:01:33;;;;;;;5.70;4.50;;;;;;;48.37;17.48;100269.69;117145;1188;22915;-52
2022/06/29 13:04:02;;;;;;;6.20;4.70;;;;;;;48.35;17.69;100264.72;117037;1188;22246;-52
2022/06/29 13:06:29;;;;;;;6.70;5.00;;;;;;;48.24;17.14;100265.91;116931;1188;23556;-61
2022/06/29 13:08:57;;;;;;;5.40;4.90;;;;;;;47.55;16.78;100266.24;117076;1188;23663;-61
2022/06/29 13:11:24;;;;;;;6.70;4.70;;;;;;;46.71;17.70;100267.77;116988;1188;22841;-51
2022/06/29 13:13:51;;;;;;;6.10;4.30;;;;;;;46.33;17.64;100260.02;117190;1189;21852;-61
2022/06/29 13:16:18;;;;;;;6.00;4.80;;;;;;;46.18;17.90;100256.12;117203;1188;23669;-61
2022/06/29 13:18:45;;;;;;;9.80;4.80;;;;;;;46.15;18.30;100249.86;117092;1188;23573;-61
2022/06/29 13:21:12;;;;;;;6.20;5.00;;;;;;;46.25;18.34;100247.96;117194;1188;23647;-61
2022/06/29 13:23:39;;;;;;;6.30;5.10;;;;;;;46.36;18.20;100245.92;117017;1186;23580;-50
2022/06/29 13:26:07;;;;;;;6.50;5.00;;;;;;;46.44;17.83;100239.91;117208;1189;23583;-51
2022/06/29 13:28:33;;;;;;;7.90;4.90;;;;;;;46.40;18.26;100237.05;117146;1187;23576;-60
2022/06/29 13:31:01;;;;;;;6.40;5.10;;;;;;;46.52;18.35;100234.98;117138;1187;23577;-60
2022/06/29 13:33:28;;;;;;;8.00;4.60;;;;;;;46.70;18.12;100235.25;116952;1188;23576;-51
2022/06/29 13:35:57;;;;;;;7.40;4.20;;;;;;;46.89;18.00;100230.55;117095;1189;23631;-50
2022/06/29 13:38:24;;;;;;;6.30;4.80;;;;;;;47.09;18.00;100225.86;117064;1188;23590;-50
2022/06/29 13:40:50;;;;;;;5.40;4.40;;;;;;;47.24;17.87;100222.61;116997;1188;23660;-61
2022/06/29 13:43:17;;;;;;;8.70;4.90;;;;;;;47.32;17.89;100218.52;117141;1187;22915;-51
2022/06/29 13:45:45;;;;;;;6.50;5.00;;;;;;;47.26;17.87;100222.16;117196;1186;23538;-51
2022/06/29 13:48:12;;;;;;;6.60;4.40;;;;;;;47.16;17.89;100219.08;117131;1187;22928;-51
2022/06/29 13:50:39;;;;;;;6.80;4.70;;;;;;;47.11;17.96;100218.04;116894;1188;23570;-60
2022/06/29 13:53:06;;;;;;;9.10;4.90;;;;;;;46.98;17.75;100218.83;117084;1189;23599;-50
2022/06/29 13:55:33;;;;;;;6.30;5.30;;;;;;;46.65;17.22;100215.29;117021;1188;23601;-60
2022/06/29 13:58:00;;;;;;;5.50;4.70;;;;;;;46.09;17.26;100212.56;117030;1188;22809;-50
2022/06/29 14:00:27;;;;;;;5.40;4.90;;;;;;;45.49;17.11;100214.05;117088;1188;22819;-51
2022/06/29 14:02:54;;;;;;;17.10;6.40;;;;;;;44.86;17.59;100212.04;117036;1187;21863;-61
2022/06/29 14:05:22;;;;;;;8.20;5.90;;;;;;;44.13;18.49;100211.33;116986;1188;23649;-61
2022/06/29 14:07:49;;;;;;;7.80;5.30;;;;;;;43.27;19.20;100206.25;116895;1188;21857;-61
2022/06/29 14:10:37;;;;;;;10.00;6.10;;;;;;;42.53;19.66;100205.86;117063;1188;23640;-49
2022/06/29 14:13:04;;;;;;;12.10;6.10;;;;;;;41.91;20.21;100211.62;116930;1188;21855;-60
2022/06/29 14:15:32;;;;;;;10.60;7.00;;;;;;;41.41;20.74;100209.59;116997;1188;22809;-50
2022/06/29 14:17:58;;;;;;;8.10;6.80;;;;;;;40.85;20.94;100211.91;117078;1188;23554;-50
2022/06/29 14:20:25;;;;;;;8.50;6.50;;;;;;;40.44;21.87;100210.25;117027;1187;23599;-49
2022/06/29 14:22:53;;;;;;;8.30;6.70;;;;;;;40.16;22.12;100206.68;117079;1188;22808;-50
2022/06/29 14:25:21;;;;;;;8.50;6.60;;;;;;;39.90;22.23;100205.73;116954;1187;22819;-50
2022/06/29 14:27:48;;;;;;;7.70;6.70;;;;;;;39.74;22.43;100203.89;117065;1188;23663;-50
2022/06/29 14:30:15;;;;;;;7.90;6.90;;;;;;;39.51;22.76;100204.02;117045;1187;24665;-62
2022/06/29 14:32:43;;;;;;;9.30;7.60;;;;;;;39.29;22.74;100202.09;117082;1188;23691;-50
2022/06/29 14:35:10;;;;;;;9.90;8.10;;;;;;;39.13;23.74;100207.67;117078;1188;22918;-59
2022/06/29 14:37:38;;;;;;;15.10;8.60;;;;;;;38.76;24.12;100204.89;117079;1188;23634;-48
2022/06/29 14:40:08;;;;;;;11.30;7.50;;;;;;;38.33;24.55;100203.95;116981;1188;22917;-49
2022/06/29 14:42:36;;;;;;;12.20;8.50;;;;;;;38.04;24.99;100202.58;117101;1187;23018;-48
2022/06/29 14:45:03;;;;;;;8.60;7.30;;;;;;;37.90;25.13;100208.03;117078;1188;23625;-48
2022/06/29 14:47:31;;;;;;;8.80;7.90;;;;;;;37.85;25.57;100211.41;117121;1188;23585;-58
2022/06/29 14:49:58;;;;;;;12.30;8.20;;;;;;;37.77;25.92;100215.89;117158;1189;22928;-59
2022/06/29 14:52:25;;;;;;;9.80;7.80;;;;;;;37.81;25.43;100211.77;117302;1187;23647;-48
2022/06/29 14:54:53;;;;;;;8.90;6.80;;;;;;;37.91;25.35;100216.41;117118;1188;23603;-49
2022/06/29 14:57:21;;;;;;;9.20;7.00;;;;;;;38.03;25.21;100216.89;117138;1188;23583;-49
2022/06/29 14:59:48;;;;;;;10.90;6.80;;;;;;;38.11;25.44;100213.30;117192;1188;23371;-49
2022/06/29 15:02:15;;;;;;;11.90;7.40;;;;;;;38.15;25.44;100215.39;117110;1187;24748;-60
2022/06/29 15:04:43;;;;;;;7.90;7.10;;;;;;;38.11;25.70;100211.11;117141;1187;23544;-56
2022/06/29 15:07:10;;;;;;;10.20;6.80;;;;;;;38.06;25.36;100209.35;117219;1187;22835;-48
2022/06/29 15:09:37;;;;;;;8.20;7.20;;;;;;;38.02;25.57;100207.48;117154;1188;23601;-60
2022/06/29 15:12:04;;;;;;;11.10;7.10;;;;;;;37.96;25.78;100207.98;117174;1187;23594;-60
2022/06/29 15:14:32;;;;;;;7.60;6.80;;;;;;;37.83;26.25;100210.23;117173;1186;23588;-60
2022/06/29 15:16:58;;;;;;;9.60;6.90;;;;;;;37.71;26.30;100214.50;117050;1188;22810;-48
2022/06/29 15:19:26;;;;;;;8.90;7.30;;;;;;;37.74;26.25;100213.73;117129;1186;23630;-60
2022/06/29 15:21:53;;;;;;;9.20;7.20;;;;;;;37.72;26.39;100212.23;117201;1188;23587;-60
2022/06/29 15:24:20;;;;;;;9.40;7.80;;;;;;;37.66;26.53;100216.39;117160;1188;21968;-49
2022/06/29 15:26:47;;;;;;;10.00;7.80;;;;;;;37.53;26.80;100219.80;117166;1188;23589;-59
2022/06/29 15:29:16;;;;;;;9.00;7.30;;;;;;;37.39;26.96;100220.27;117026;1188;23599;-59
2022/06/29 15:31:44;;;;;;;10.20;7.00;;;;;;;37.28;26.90;100220.05;117114;1187;23911;-48
2022/06/29 15:39:48;;;;;;;11.20;7.60;;;;;;;37.08;27.02;100231.91;116969;1187;23631;-50
2022/06/29 15:42:15;;;;;;;8.80;7.20;;;;;;;36.97;27.37;100237.88;117127;1188;22928;-48
2022/06/29 15:44:42;;;;;;;8.90;7.70;;;;;;;36.83;27.53;100242.73;117088;1187;21921;-49
2022/06/29 15:47:10;;;;;;;8.50;6.90;;;;;;;36.77;27.25;100238.30;117076;1188;23660;-60
2022/06/29 15:49:37;;;;;;;9.80;6.90;;;;;;;36.72;27.38;100237.32;117138;1188;23598;-49
2022/06/29 15:52:04;;;;;;;10.60;7.60;;;;;;;36.65;27.74;100244.80;117004;1188;23599;-60
2022/06/29 15:57:17;;;;;;;9.40;6.80;;;;;;;36.44;27.93;100248.43;116957;1188;21867;-48
2022/06/29 15:59:44;;;;;;;7.90;6.40;;;;;;;36.33;28.34;100250.22;117016;1188;23580;-57
2022/06/29 16:02:11;;;;;;;8.90;6.40;;;;;;;36.22;28.38;100253.20;117112;1188;23672;-59
2022/06/29 16:04:38;;;;;;;8.40;6.70;;;;;;;36.14;28.20;100257.23;116976;1188;23560;-48
2022/06/29 16:07:09;;;;;;;8.20;6.50;;;;;;;36.03;28.34;100258.42;117076;1188;23631;-58
2022/06/29 16:09:37;;;;;;;6.50;5.90;;;;;;;35.89;28.04;100252.78;117191;1188;23564;-48
2022/06/29 16:12:07;;;;;;;7.60;6.80;;;;;;;35.77;28.33;100255.92;117143;1188;23598;-48
2022/06/29 16:14:40;;;;;;;8.00;6.50;;;;;;;35.60;28.32;100252.85;117192;1188;23576;-59
2022/06/29 16:17:08;;;;;;;8.90;6.00;;;;;;;35.42;28.42;100254.95;117225;1186;23553;-59
2022/06/29 16:19:35;;;;;;;7.80;5.80;;;;;;;35.26;28.56;100256.22;117095;1188;23598;-59
2022/06/29 16:22:06;;;;;;;7.50;5.30;;;;;;;35.13;28.40;100258.38;117109;1188;23601;-48
2022/06/29 16:24:35;;;;;;;5.70;5.10;;;;;;;34.98;28.40;100256.73;117204;1187;23579;-48
2022/06/29 16:27:03;;;;;;;14.40;5.90;;;;;;;34.84;28.37;100255.27;117197;1188;23666;-59
2022/06/29 16:29:30;;;;;;;8.00;5.80;;;;;;;34.70;28.40;100252.70;117209;1186;23630;-48
2022/06/29 16:31:56;;;;;;;6.80;5.00;;;;;;;34.54;28.36;100247.05;117144;1188;23647;-48
2022/06/29 16:34:24;;;;;;;8.30;4.90;;;;;;;34.44;28.43;100246.55;117241;1188;23557;-48
2022/06/29 16:36:51;;;;;;;9.00;5.10;;;;;;;34.38;28.59;100243.77;117133;1187;23601;-59
2022/06/29 16:39:19;;;;;;;7.50;5.20;;;;;;;34.36;28.77;100253.45;117084;1188;23567;-48
2022/06/29 16:41:47;;;;;;;8.20;4.80;;;;;;;34.34;29.01;100256.84;117050;1187;22240;-59
2022/06/29 16:44:14;;;;;;;6.10;4.40;;;;;;;34.28;28.90;100256.58;116979;1187;22940;-59
2022/06/29 16:46:41;;;;;;;7.40;4.40;;;;;;;34.23;29.07;100255.86;117066;1188;21864;-48
2022/06/29 16:49:10;;;;;;;7.60;4.90;;;;;;;34.21;29.24;100255.58;117073;1187;22033;-49
2022/06/29 16:51:39;;;;;;;7.90;4.10;;;;;;;34.16;29.18;100254.73;117058;1187;22958;-59
2022/06/29 16:54:24;;;;;;;8.10;4.40;;;;;;;34.10;29.15;100257.89;117087;1187;23557;-58
2022/06/29 16:56:53;;;;;;;9.10;4.60;;;;;;;34.04;29.30;100261.11;117051;1188;22907;-59
2022/06/29 16:59:19;;;;;;;12.80;5.80;;;;;;;33.96;29.43;100264.80;117040;1187;23557;-48
2022/06/29 17:01:48;;;;;;;11.80;5.40;;;;;;;33.89;29.59;100270.67;116958;1185;23560;-58
2022/06/29 17:04:16;;;;;;;11.00;5.20;;;;;;;33.79;29.64;100278.46;117147;1186;22963;-48
2022/06/29 17:06:43;;;;;;;15.00;4.90;;;;;;;33.69;29.87;100281.75;117058;1188;23621;-58
2022/06/29 17:09:11;;;;;;;8.40;4.40;;;;;;;33.61;29.96;100286.13;117053;1186;23573;-58
2022/06/29 17:11:44;;;;;;;15.00;5.60;;;;;;;33.50;30.21;100283.00;117182;1188;23576;-60
2022/06/29 17:14:11;;;;;;;8.00;5.00;;;;;;;33.40;30.18;100281.56;117040;1189;23552;-48
2022/06/29 17:16:38;;;;;;;9.10;5.20;;;;;;;33.32;30.17;100277.36;117173;1187;23554;-48
2022/06/29 17:19:06;;;;;;;7.70;4.30;;;;;;;33.30;30.26;100278.92;117106;1188;23582;-48
2022/06/29 17:21:33;;;;;;;9.20;4.30;;;;;;;33.17;30.42;100287.30;117133;1188;23563;-48